sensor_id;sensor_type;location;lat;lon;timestamp;pressure;altitude;pressure_sealevel;temperature;humidity
74466;BME280;62916;50.044;15.938;2024-01-15T00:01:43;97416.63;;;16.33;52.60
74466;BME280;62916;50.044;15.938;2024-01-15T00:04:14;97408.53;;;16.31;52.69
74466;BME280;62916;50.044;15.938;2024-01-15T00:06:45;97410.70;;;16.29;52.81
74466;BME280;62916;50.044;15.938;2024-01-15T00:09:16;97411.94;;;16.28;52.81
74466;BME280;62916;50.044;15.938;2024-01-15T00:11:47;97409.48;;;16.27;52.73
74466;BME280;62916;50.044;15.938;2024-01-15T00:14:18;97399.70;;;16.24;52.84
74466;BME280;62916;50.044;15.938;2024-01-15T00:16:50;97403.25;;;16.22;52.69
74466;BME280;62916;50.044;15.938;2024-01-15T00:19:21;97397.25;;;16.19;52.83
74466;BME280;62916;50.044;15.938;2024-01-15T00:21:53;97399.53;;;16.16;52.82
74466;BME280;62916;50.044;15.938;2024-01-15T00:24:24;97395.95;;;16.13;52.90
74466;BME280;62916;50.044;15.938;2024-01-15T00:26:55;97391.46;;;16.11;52.73
74466;BME280;62916;50.044;15.938;2024-01-15T00:29:26;97388.13;;;16.08;52.90
74466;BME280;62916;50.044;15.938;2024-01-15T00:31:57;97380.38;;;16.06;52.86
74466;BME280;62916;50.044;15.938;2024-01-15T00:34:27;97375.31;;;16.03;52.82
74466;BME280;62916;50.044;15.938;2024-01-15T00:36:58;97370.51;;;16.02;52.88
74466;BME280;62916;50.044;15.938;2024-01-15T00:39:29;97360.81;;;15.99;52.95
74466;BME280;62916;50.044;15.938;2024-01-15T00:42:01;97361.11;;;15.97;52.96
74466;BME280;62916;50.044;15.938;2024-01-15T00:44:33;97355.23;;;15.96;52.98
74466;BME280;62916;50.044;15.938;2024-01-15T00:47:04;97354.98;;;15.93;53.07
74466;BME280;62916;50.044;15.938;2024-01-15T00:49:35;97351.64;;;15.91;53.02
74466;BME280;62916;50.044;15.938;2024-01-15T00:52:07;97354.97;;;15.90;52.99
74466;BME280;62916;50.044;15.938;2024-01-15T00:54:37;97351.10;;;15.87;53.04
74466;BME280;62916;50.044;15.938;2024-01-15T00:57:09;97347.59;;;15.85;53.13
74466;BME280;62916;50.044;15.938;2024-01-15T00:59:40;97339.47;;;15.84;53.12
74466;BME280;62916;50.044;15.938;2024-01-15T01:02:11;97340.29;;;15.83;53.15
74466;BME280;62916;50.044;15.938;2024-01-15T01:04:42;97335.55;;;15.80;53.28
74466;BME280;62916;50.044;15.938;2024-01-15T01:07:13;97338.17;;;15.78;53.16
74466;BME280;62916;50.044;15.938;2024-01-15T01:09:44;97330.09;;;15.76;53.16
74466;BME280;62916;50.044;15.938;2024-01-15T01:12:15;97325.84;;;15.74;53.28
74466;BME280;62916;50.044;15.938;2024-01-15T01:14:46;97324.95;;;15.72;53.20
74466;BME280;62916;50.044;15.938;2024-01-15T01:17:17;97321.27;;;15.70;53.19
74466;BME280;62916;50.044;15.938;2024-01-15T01:19:49;97315.42;;;15.68;53.26
74466;BME280;62916;50.044;15.938;2024-01-15T01:22:20;97320.08;;;15.66;53.19
74466;BME280;62916;50.044;15.938;2024-01-15T01:24:50;97316.79;;;15.64;53.24
74466;BME280;62916;50.044;15.938;2024-01-15T01:27:21;97317.45;;;15.63;53.28
74466;BME280;62916;50.044;15.938;2024-01-15T01:29:52;97311.13;;;15.61;53.31
74466;BME280;62916;50.044;15.938;2024-01-15T01:32:23;97311.73;;;15.60;53.38
74466;BME280;62916;50.044;15.938;2024-01-15T01:34:54;97311.19;;;15.59;53.32
74466;BME280;62916;50.044;15.938;2024-01-15T01:37:25;97305.77;;;15.58;53.36
74466;BME280;62916;50.044;15.938;2024-01-15T01:39:56;97301.33;;;15.56;53.36
74466;BME280;62916;50.044;15.938;2024-01-15T01:42:26;97297.17;;;15.54;53.40
74466;BME280;62916;50.044;15.938;2024-01-15T01:44:58;97294.26;;;15.52;53.28
74466;BME280;62916;50.044;15.938;2024-01-15T01:47:29;97296.27;;;15.51;53.39
74466;BME280;62916;50.044;15.938;2024-01-15T01:50:00;97295.43;;;15.48;53.41
74466;BME280;62916;50.044;15.938;2024-01-15T01:52:32;97296.52;;;15.47;53.39
74466;BME280;62916;50.044;15.938;2024-01-15T01:55:06;97292.39;;;15.46;53.44
74466;BME280;62916;50.044;15.938;2024-01-15T01:57:37;97288.13;;;15.43;53.49
74466;BME280;62916;50.044;15.938;2024-01-15T02:00:11;97291.52;;;15.42;53.48
74466;BME280;62916;50.044;15.938;2024-01-15T02:02:42;97291.44;;;15.41;53.56
74466;BME280;62916;50.044;15.938;2024-01-15T02:05:15;97292.98;;;15.40;53.54
74466;BME280;62916;50.044;15.938;2024-01-15T02:07:49;97293.14;;;15.38;53.57
74466;BME280;62916;50.044;15.938;2024-01-15T02:10:20;97296.23;;;15.37;53.60
74466;BME280;62916;50.044;15.938;2024-01-15T02:12:51;97297.46;;;15.36;53.66
74466;BME280;62916;50.044;15.938;2024-01-15T02:15:22;97294.23;;;15.35;53.60
74466;BME280;62916;50.044;15.938;2024-01-15T02:18:00;97286.14;;;15.35;53.74
74466;BME280;62916;50.044;15.938;2024-01-15T02:20:33;97276.41;;;15.33;53.68
74466;BME280;62916;50.044;15.938;2024-01-15T02:23:09;97266.00;;;15.32;53.83
74466;BME280;62916;50.044;15.938;2024-01-15T02:25:41;97263.98;;;15.32;53.84
74466;BME280;62916;50.044;15.938;2024-01-15T02:28:15;97255.17;;;15.31;53.79
74466;BME280;62916;50.044;15.938;2024-01-15T02:30:47;97248.23;;;15.30;53.89
74466;BME280;62916;50.044;15.938;2024-01-15T02:33:18;97248.66;;;15.29;53.83
74466;BME280;62916;50.044;15.938;2024-01-15T02:35:49;97253.01;;;15.28;53.89
74466;BME280;62916;50.044;15.938;2024-01-15T02:38:20;97252.76;;;15.27;53.98
74466;BME280;62916;50.044;15.938;2024-01-15T02:40:51;97253.28;;;15.27;53.83
74466;BME280;62916;50.044;15.938;2024-01-15T02:43:22;97249.80;;;15.25;53.98
74466;BME280;62916;50.044;15.938;2024-01-15T02:45:53;97238.34;;;15.24;54.04
74466;BME280;62916;50.044;15.938;2024-01-15T02:48:23;97236.20;;;15.23;53.99
74466;BME280;62916;50.044;15.938;2024-01-15T02:50:54;97230.48;;;15.22;54.10
74466;BME280;62916;50.044;15.938;2024-01-15T02:53:25;97234.06;;;15.20;54.11
74466;BME280;62916;50.044;15.938;2024-01-15T02:55:56;97233.50;;;15.18;54.17
74466;BME280;62916;50.044;15.938;2024-01-15T02:58:27;97241.85;;;15.17;54.18
74466;BME280;62916;50.044;15.938;2024-01-15T03:00:57;97233.79;;;15.15;54.32
74466;BME280;62916;50.044;15.938;2024-01-15T03:03:29;97229.92;;;15.14;54.22
74466;BME280;62916;50.044;15.938;2024-01-15T03:06:00;97224.27;;;15.13;54.32
74466;BME280;62916;50.044;15.938;2024-01-15T03:08:32;97223.17;;;15.12;54.42
74466;BME280;62916;50.044;15.938;2024-01-15T03:11:04;97219.82;;;15.10;54.65
74466;BME280;62916;50.044;15.938;2024-01-15T03:13:38;97215.75;;;15.10;54.51
74466;BME280;62916;50.044;15.938;2024-01-15T03:16:09;97211.11;;;15.09;54.64
74466;BME280;62916;50.044;15.938;2024-01-15T03:18:40;97206.67;;;15.08;54.64
74466;BME280;62916;50.044;15.938;2024-01-15T03:21:11;97202.96;;;15.08;54.71
74466;BME280;62916;50.044;15.938;2024-01-15T03:23:42;97198.88;;;15.07;54.62
74466;BME280;62916;50.044;15.938;2024-01-15T03:26:13;97192.27;;;15.05;54.66
74466;BME280;62916;50.044;15.938;2024-01-15T03:28:44;97191.92;;;15.04;54.57
74466;BME280;62916;50.044;15.938;2024-01-15T03:31:15;97193.14;;;15.03;54.71
74466;BME280;62916;50.044;15.938;2024-01-15T03:33:46;97195.89;;;15.03;54.74
74466;BME280;62916;50.044;15.938;2024-01-15T03:36:17;97201.84;;;15.02;54.82
74466;BME280;62916;50.044;15.938;2024-01-15T03:38:48;97199.90;;;15.01;54.86
74466;BME280;62916;50.044;15.938;2024-01-15T03:41:19;97202.30;;;15.01;54.94
74466;BME280;62916;50.044;15.938;2024-01-15T03:43:51;97198.59;;;15.00;54.80
74466;BME280;62916;50.044;15.938;2024-01-15T03:46:21;97199.17;;;15.00;54.94
74466;BME280;62916;50.044;15.938;2024-01-15T03:48:52;97195.40;;;14.99;54.97
74466;BME280;62916;50.044;15.938;2024-01-15T03:51:24;97194.05;;;14.97;54.94
74466;BME280;62916;50.044;15.938;2024-01-15T03:53:55;97192.64;;;14.96;54.96
74466;BME280;62916;50.044;15.938;2024-01-15T03:56:25;97191.17;;;14.95;54.94
74466;BME280;62916;50.044;15.938;2024-01-15T03:58:56;97189.54;;;14.94;54.99
74466;BME280;62916;50.044;15.938;2024-01-15T04:01:27;97185.08;;;14.93;54.97
74466;BME280;62916;50.044;15.938;2024-01-15T04:03:59;97182.34;;;14.91;55.04
74466;BME280;62916;50.044;15.938;2024-01-15T04:06:30;97185.59;;;14.90;55.12
74466;BME280;62916;50.044;15.938;2024-01-15T04:09:01;97189.73;;;14.90;55.08
74466;BME280;62916;50.044;15.938;2024-01-15T04:11:32;97195.94;;;14.90;55.00
74466;BME280;62916;50.044;15.938;2024-01-15T04:14:03;97197.27;;;14.89;55.11
74466;BME280;62916;50.044;15.938;2024-01-15T04:16:34;97197.15;;;14.88;55.07
74466;BME280;62916;50.044;15.938;2024-01-15T04:19:05;97196.70;;;14.87;55.06
74466;BME280;62916;50.044;15.938;2024-01-15T04:21:36;97193.76;;;14.85;55.28
74466;BME280;62916;50.044;15.938;2024-01-15T04:24:08;97196.17;;;14.84;55.19
74466;BME280;62916;50.044;15.938;2024-01-15T04:26:39;97208.15;;;14.83;55.16
74466;BME280;62916;50.044;15.938;2024-01-15T04:29:10;97213.38;;;14.82;55.26
74466;BME280;62916;50.044;15.938;2024-01-15T04:31:41;97217.77;;;14.83;55.36
74466;BME280;62916;50.044;15.938;2024-01-15T04:34:12;97219.33;;;14.83;55.24
74466;BME280;62916;50.044;15.938;2024-01-15T04:36:43;97213.33;;;14.84;55.33
74466;BME280;62916;50.044;15.938;2024-01-15T04:39:14;97222.50;;;14.86;55.27
74466;BME280;62916;50.044;15.938;2024-01-15T04:41:45;97226.96;;;14.88;55.33
74466;BME280;62916;50.044;15.938;2024-01-15T04:44:15;97221.64;;;14.90;55.29
74466;BME280;62916;50.044;15.938;2024-01-15T04:46:47;97218.73;;;14.93;55.34
74466;BME280;62916;50.044;15.938;2024-01-15T04:49:18;97224.08;;;14.96;55.38
74466;BME280;62916;50.044;15.938;2024-01-15T04:51:48;97233.30;;;14.99;55.40
74466;BME280;62916;50.044;15.938;2024-01-15T04:54:20;97227.16;;;15.03;55.33
74466;BME280;62916;50.044;15.938;2024-01-15T04:56:51;97228.67;;;15.06;55.42
74466;BME280;62916;50.044;15.938;2024-01-15T04:59:22;97222.80;;;15.09;55.42
74466;BME280;62916;50.044;15.938;2024-01-15T05:01:53;97220.67;;;15.13;55.38
74466;BME280;62916;50.044;15.938;2024-01-15T05:04:23;97218.65;;;15.16;55.52
74466;BME280;62916;50.044;15.938;2024-01-15T05:06:56;97224.70;;;15.18;55.36
74466;BME280;62916;50.044;15.938;2024-01-15T05:09:27;97224.35;;;15.22;55.42
74466;BME280;62916;50.044;15.938;2024-01-15T05:12:01;97221.02;;;15.26;55.70
74466;BME280;62916;50.044;15.938;2024-01-15T05:14:32;97217.33;;;15.31;55.89
74466;BME280;62916;50.044;15.938;2024-01-15T05:17:03;97213.09;;;15.34;55.76
74466;BME280;62916;50.044;15.938;2024-01-15T05:19:39;97210.46;;;15.36;55.69
74466;BME280;62916;50.044;15.938;2024-01-15T05:22:10;97212.84;;;15.39;55.81
74466;BME280;62916;50.044;15.938;2024-01-15T05:24:41;97220.33;;;15.42;55.75
74466;BME280;62916;50.044;15.938;2024-01-15T05:27:12;97224.47;;;15.46;55.74
74466;BME280;62916;50.044;15.938;2024-01-15T05:29:43;97225.27;;;15.48;55.80
74466;BME280;62916;50.044;15.938;2024-01-15T05:32:14;97219.31;;;15.51;55.64
74466;BME280;62916;50.044;15.938;2024-01-15T05:34:45;97213.64;;;15.54;55.63
74466;BME280;62916;50.044;15.938;2024-01-15T05:37:16;97212.54;;;15.56;55.22
74466;BME280;62916;50.044;15.938;2024-01-15T05:39:47;97215.77;;;15.59;54.90
74466;BME280;62916;50.044;15.938;2024-01-15T05:42:18;97218.30;;;15.60;54.61
74466;BME280;62916;50.044;15.938;2024-01-15T05:44:49;97221.80;;;15.62;54.26
74466;BME280;62916;50.044;15.938;2024-01-15T05:47:20;97226.90;;;15.65;54.05
74466;BME280;62916;50.044;15.938;2024-01-15T05:49:51;97226.07;;;15.68;53.71
74466;BME280;62916;50.044;15.938;2024-01-15T05:52:22;97227.44;;;15.71;53.44
74466;BME280;62916;50.044;15.938;2024-01-15T05:54:53;97223.81;;;15.76;53.28
74466;BME280;62916;50.044;15.938;2024-01-15T05:57:24;97214.21;;;15.80;52.99
74466;BME280;62916;50.044;15.938;2024-01-15T05:59:55;97221.96;;;15.83;52.66
74466;BME280;62916;50.044;15.938;2024-01-15T06:02:26;97231.48;;;15.88;52.63
74466;BME280;62916;50.044;15.938;2024-01-15T06:04:57;97237.85;;;15.91;52.43
74466;BME280;62916;50.044;15.938;2024-01-15T06:07:28;97239.88;;;15.94;52.12
74466;BME280;62916;50.044;15.938;2024-01-15T06:09:59;97245.83;;;15.97;51.96
74466;BME280;62916;50.044;15.938;2024-01-15T06:12:30;97248.39;;;15.99;51.76
74466;BME280;62916;50.044;15.938;2024-01-15T06:15:04;97251.92;;;16.01;51.69
74466;BME280;62916;50.044;15.938;2024-01-15T06:17:35;97252.86;;;16.02;51.69
74466;BME280;62916;50.044;15.938;2024-01-15T06:20:09;97250.59;;;16.03;51.96
74466;BME280;62916;50.044;15.938;2024-01-15T06:22:40;97253.79;;;16.05;52.19
74466;BME280;62916;50.044;15.938;2024-01-15T06:25:11;97255.30;;;16.07;52.01
74466;BME280;62916;50.044;15.938;2024-01-15T06:27:42;97258.45;;;16.08;51.88
74466;BME280;62916;50.044;15.938;2024-01-15T06:30:14;97256.48;;;16.09;51.63
74466;BME280;62916;50.044;15.938;2024-01-15T06:32:45;97261.48;;;16.10;51.48
74466;BME280;62916;50.044;15.938;2024-01-15T06:35:16;97263.77;;;16.11;51.41
74466;BME280;62916;50.044;15.938;2024-01-15T06:37:51;97262.70;;;16.12;51.12
74466;BME280;62916;50.044;15.938;2024-01-15T06:40:22;97268.02;;;16.13;50.98
74466;BME280;62916;50.044;15.938;2024-01-15T06:42:53;97274.90;;;16.13;50.88
74466;BME280;62916;50.044;15.938;2024-01-15T06:45:24;97273.38;;;16.13;50.74
74466;BME280;62916;50.044;15.938;2024-01-15T06:47:55;97273.09;;;16.14;50.57
74466;BME280;62916;50.044;15.938;2024-01-15T06:50:26;97276.77;;;16.14;50.44
74466;BME280;62916;50.044;15.938;2024-01-15T06:52:57;97277.79;;;16.15;50.17
74466;BME280;62916;50.044;15.938;2024-01-15T06:55:28;97274.13;;;16.17;50.03
74466;BME280;62916;50.044;15.938;2024-01-15T06:57:59;97272.77;;;16.20;49.83
74466;BME280;62916;50.044;15.938;2024-01-15T07:00:30;97279.81;;;16.24;49.52
74466;BME280;62916;50.044;15.938;2024-01-15T07:03:01;97276.36;;;16.27;49.51
74466;BME280;62916;50.044;15.938;2024-01-15T07:05:32;97272.21;;;16.30;49.51
74466;BME280;62916;50.044;15.938;2024-01-15T07:08:03;97272.98;;;16.33;49.58
74466;BME280;62916;50.044;15.938;2024-01-15T07:10:34;97279.50;;;16.35;50.01
74466;BME280;62916;50.044;15.938;2024-01-15T07:13:06;97287.84;;;16.38;50.12
74466;BME280;62916;50.044;15.938;2024-01-15T07:15:37;97291.43;;;16.42;49.79
74466;BME280;62916;50.044;15.938;2024-01-15T07:18:08;97297.88;;;16.45;49.67
74466;BME280;62916;50.044;15.938;2024-01-15T07:20:39;97303.61;;;16.49;49.66
74466;BME280;62916;50.044;15.938;2024-01-15T07:23:12;97305.56;;;16.52;49.35
74466;BME280;62916;50.044;15.938;2024-01-15T07:25:43;97308.46;;;16.53;49.25
74466;BME280;62916;50.044;15.938;2024-01-15T07:28:14;97309.34;;;16.55;49.12
74466;BME280;62916;50.044;15.938;2024-01-15T07:30:45;97313.17;;;16.55;48.97
74466;BME280;62916;50.044;15.938;2024-01-15T07:33:16;97315.54;;;16.59;48.92
74466;BME280;62916;50.044;15.938;2024-01-15T07:35:47;97314.19;;;16.61;48.80
74466;BME280;62916;50.044;15.938;2024-01-15T07:38:18;97312.55;;;16.62;48.72
74466;BME280;62916;50.044;15.938;2024-01-15T07:40:49;97317.90;;;16.63;48.50
74466;BME280;62916;50.044;15.938;2024-01-15T07:43:20;97313.73;;;16.63;48.67
74466;BME280;62916;50.044;15.938;2024-01-15T07:45:51;97323.29;;;16.64;48.53
74466;BME280;62916;50.044;15.938;2024-01-15T07:48:21;97322.10;;;16.64;48.39
74466;BME280;62916;50.044;15.938;2024-01-15T07:50:54;97323.65;;;16.65;48.27
74466;BME280;62916;50.044;15.938;2024-01-15T07:53:25;97330.00;;;16.66;48.32
74466;BME280;62916;50.044;15.938;2024-01-15T07:55:57;97326.96;;;16.68;48.07
74466;BME280;62916;50.044;15.938;2024-01-15T07:58:29;97328.98;;;16.70;48.27
74466;BME280;62916;50.044;15.938;2024-01-15T08:01:00;97325.93;;;16.72;48.60
74466;BME280;62916;50.044;15.938;2024-01-15T08:03:31;97326.95;;;16.75;48.86
74466;BME280;62916;50.044;15.938;2024-01-15T08:06:03;97326.02;;;16.77;48.57
74466;BME280;62916;50.044;15.938;2024-01-15T08:08:34;97331.84;;;16.81;48.44
74466;BME280;62916;50.044;15.938;2024-01-15T08:11:06;97333.31;;;16.84;48.28
74466;BME280;62916;50.044;15.938;2024-01-15T08:13:37;97337.74;;;16.87;48.18
74466;BME280;62916;50.044;15.938;2024-01-15T08:16:09;97336.46;;;16.88;48.08
74466;BME280;62916;50.044;15.938;2024-01-15T08:18:42;97337.02;;;16.91;48.01
74466;BME280;62916;50.044;15.938;2024-01-15T08:21:15;97332.20;;;16.92;47.84
74466;BME280;62916;50.044;15.938;2024-01-15T08:23:46;97329.06;;;16.94;47.84
74466;BME280;62916;50.044;15.938;2024-01-15T08:26:17;97332.91;;;16.96;47.70
74466;BME280;62916;50.044;15.938;2024-01-15T08:28:49;97334.41;;;16.98;47.78
74466;BME280;62916;50.044;15.938;2024-01-15T08:31:20;97333.29;;;16.99;47.59
74466;BME280;62916;50.044;15.938;2024-01-15T08:33:52;97334.38;;;17.01;47.61
74466;BME280;62916;50.044;15.938;2024-01-15T08:36:23;97332.27;;;17.02;47.41
74466;BME280;62916;50.044;15.938;2024-01-15T08:38:55;97328.08;;;17.02;47.19
74466;BME280;62916;50.044;15.938;2024-01-15T08:41:26;97331.38;;;17.02;47.18
74466;BME280;62916;50.044;15.938;2024-01-15T08:43:58;97332.66;;;17.02;47.22
74466;BME280;62916;50.044;15.938;2024-01-15T08:46:29;97332.98;;;17.02;47.05
74466;BME280;62916;50.044;15.938;2024-01-15T08:49:00;97335.77;;;17.02;47.29
74466;BME280;62916;50.044;15.938;2024-01-15T08:51:35;97339.05;;;16.99;47.53
74466;BME280;62916;50.044;15.938;2024-01-15T08:54:07;97335.96;;;16.98;47.67
74466;BME280;62916;50.044;15.938;2024-01-15T08:56:39;97336.52;;;16.98;47.81
74466;BME280;62916;50.044;15.938;2024-01-15T08:59:10;97337.67;;;16.99;47.60
74466;BME280;62916;50.044;15.938;2024-01-15T09:01:42;97336.16;;;16.99;47.62
74466;BME280;62916;50.044;15.938;2024-01-15T09:04:14;97327.11;;;16.99;47.45
74466;BME280;62916;50.044;15.938;2024-01-15T09:06:47;97325.09;;;16.98;47.39
74466;BME280;62916;50.044;15.938;2024-01-15T09:09:19;97324.60;;;16.98;47.26
74466;BME280;62916;50.044;15.938;2024-01-15T09:11:50;97329.38;;;16.98;47.12
74466;BME280;62916;50.044;15.938;2024-01-15T09:14:22;97330.63;;;16.97;47.17
74466;BME280;62916;50.044;15.938;2024-01-15T09:17:06;97332.59;;;16.96;46.93
74466;BME280;62916;50.044;15.938;2024-01-15T09:19:37;97335.42;;;16.95;46.84
74466;BME280;62916;50.044;15.938;2024-01-15T09:22:10;97332.91;;;16.96;46.77
74466;BME280;62916;50.044;15.938;2024-01-15T09:24:42;97335.24;;;16.96;46.71
74466;BME280;62916;50.044;15.938;2024-01-15T09:27:14;97332.27;;;16.98;46.47
74466;BME280;62916;50.044;15.938;2024-01-15T09:29:45;97333.63;;;17.00;46.32
74466;BME280;62916;50.044;15.938;2024-01-15T09:32:16;97333.88;;;17.04;46.42
74466;BME280;62916;50.044;15.938;2024-01-15T09:34:48;97333.46;;;17.08;46.26
74466;BME280;62916;50.044;15.938;2024-01-15T09:37:20;97327.55;;;17.11;46.15
74466;BME280;62916;50.044;15.938;2024-01-15T09:40:14;97328.89;;;17.14;46.55
74466;BME280;62916;50.044;15.938;2024-01-15T09:42:46;97328.73;;;17.16;46.82
74466;BME280;62916;50.044;15.938;2024-01-15T09:45:18;97326.86;;;17.19;46.93
74466;BME280;62916;50.044;15.938;2024-01-15T09:47:49;97323.02;;;17.21;46.79
74466;BME280;62916;50.044;15.938;2024-01-15T09:50:21;97315.36;;;17.24;46.65
74466;BME280;62916;50.044;15.938;2024-01-15T09:52:52;97311.95;;;17.27;46.28
74466;BME280;62916;50.044;15.938;2024-01-15T09:55:27;97310.59;;;17.29;46.34
74466;BME280;62916;50.044;15.938;2024-01-15T09:58:00;97312.20;;;17.32;46.20
74466;BME280;62916;50.044;15.938;2024-01-15T10:00:34;97314.91;;;17.34;46.20
74466;BME280;62916;50.044;15.938;2024-01-15T10:03:09;97313.85;;;17.35;46.03
74466;BME280;62916;50.044;15.938;2024-01-15T10:05:41;97309.50;;;17.36;45.98
74466;BME280;62916;50.044;15.938;2024-01-15T10:08:13;97303.92;;;17.37;45.96
74466;BME280;62916;50.044;15.938;2024-01-15T10:10:45;97307.50;;;17.38;45.98
74466;BME280;62916;50.044;15.938;2024-01-15T10:13:16;97300.25;;;17.39;45.81
74466;BME280;62916;50.044;15.938;2024-01-15T10:15:48;97297.51;;;17.39;45.75
74466;BME280;62916;50.044;15.938;2024-01-15T10:18:19;97299.80;;;17.40;45.73
74466;BME280;62916;50.044;15.938;2024-01-15T10:20:51;97297.02;;;17.41;45.73
74466;BME280;62916;50.044;15.938;2024-01-15T10:23:23;97296.55;;;17.42;45.68
74466;BME280;62916;50.044;15.938;2024-01-15T10:25:55;97292.41;;;17.42;45.56
74466;BME280;62916;50.044;15.938;2024-01-15T10:28:29;97285.77;;;17.42;45.45
74466;BME280;62916;50.044;15.938;2024-01-15T10:30:59;97284.05;;;17.41;45.95
74466;BME280;62916;50.044;15.938;2024-01-15T10:33:31;97282.21;;;17.39;46.17
74466;BME280;62916;50.044;15.938;2024-01-15T10:36:04;97278.33;;;17.39;46.06
74466;BME280;62916;50.044;15.938;2024-01-15T10:38:40;97290.52;;;17.41;45.98
74466;BME280;62916;50.044;15.938;2024-01-15T10:41:12;97284.99;;;17.43;45.88
74466;BME280;62916;50.044;15.938;2024-01-15T10:43:44;97283.33;;;17.45;45.72
74466;BME280;62916;50.044;15.938;2024-01-15T10:46:15;97282.06;;;17.48;45.67
74466;BME280;62916;50.044;15.938;2024-01-15T10:48:47;97282.89;;;17.51;45.63
74466;BME280;62916;50.044;15.938;2024-01-15T10:51:18;97281.82;;;17.54;45.55
74466;BME280;62916;50.044;15.938;2024-01-15T10:53:49;97284.70;;;17.56;45.50
74466;BME280;62916;50.044;15.938;2024-01-15T10:56:21;97282.96;;;17.57;45.42
74466;BME280;62916;50.044;15.938;2024-01-15T10:58:53;97288.98;;;17.59;45.30
74466;BME280;62916;50.044;15.938;2024-01-15T11:01:29;97286.54;;;17.61;45.18
74466;BME280;62916;50.044;15.938;2024-01-15T11:04:01;97288.45;;;17.62;45.20
74466;BME280;62916;50.044;15.938;2024-01-15T11:06:42;97290.04;;;17.63;45.07
74466;BME280;62916;50.044;15.938;2024-01-15T11:09:14;97281.06;;;17.63;45.01
74466;BME280;62916;50.044;15.938;2024-01-15T11:11:48;97284.59;;;17.63;44.99
74466;BME280;62916;50.044;15.938;2024-01-15T11:14:38;97284.86;;;17.64;44.92
74466;BME280;62916;50.044;15.938;2024-01-15T11:17:10;97277.00;;;17.64;44.92
74466;BME280;62916;50.044;15.938;2024-01-15T11:19:44;97278.03;;;17.64;44.87
74466;BME280;62916;50.044;15.938;2024-01-15T11:25:20;97274.98;;;17.57;45.47
74466;BME280;62916;50.044;15.938;2024-01-15T11:27:52;97275.01;;;17.58;45.43
74466;BME280;62916;50.044;15.938;2024-01-15T11:30:26;97272.98;;;17.58;45.37
74466;BME280;62916;50.044;15.938;2024-01-15T11:32:57;97274.77;;;17.56;45.25
74466;BME280;62916;50.044;15.938;2024-01-15T11:35:51;97273.93;;;17.55;45.12
74466;BME280;62916;50.044;15.938;2024-01-15T11:38:29;97279.38;;;17.53;45.11
74466;BME280;62916;50.044;15.938;2024-01-15T11:41:00;97279.36;;;17.53;45.07
74466;BME280;62916;50.044;15.938;2024-01-15T11:43:31;97278.28;;;17.52;44.98
74466;BME280;62916;50.044;15.938;2024-01-15T11:46:03;97277.20;;;17.51;44.90
74466;BME280;62916;50.044;15.938;2024-01-15T11:48:43;97274.69;;;17.50;44.81
74466;BME280;62916;50.044;15.938;2024-01-15T11:51:19;97269.36;;;17.48;44.84
74466;BME280;62916;50.044;15.938;2024-01-15T11:53:53;97266.90;;;17.47;44.66
74466;BME280;62916;50.044;15.938;2024-01-15T11:56:27;97266.54;;;17.46;44.75
74466;BME280;62916;50.044;15.938;2024-01-15T11:58:58;97268.37;;;17.44;44.46
74466;BME280;62916;50.044;15.938;2024-01-15T12:01:33;97259.48;;;17.43;44.56
74466;BME280;62916;50.044;15.938;2024-01-15T12:04:04;97260.20;;;17.42;44.47
74466;BME280;62916;50.044;15.938;2024-01-15T12:06:36;97256.80;;;17.40;44.46
74466;BME280;62916;50.044;15.938;2024-01-15T12:09:09;97260.20;;;17.39;44.35
74466;BME280;62916;50.044;15.938;2024-01-15T12:11:44;97255.38;;;17.36;44.76
74466;BME280;62916;50.044;15.938;2024-01-15T12:14:18;97259.56;;;17.35;45.06
74466;BME280;62916;50.044;15.938;2024-01-15T12:16:50;97252.95;;;17.36;45.17
74466;BME280;62916;50.044;15.938;2024-01-15T12:19:22;97255.77;;;17.38;45.00
74466;BME280;62916;50.044;15.938;2024-01-15T12:21:54;97248.67;;;17.42;44.86
74466;BME280;62916;50.044;15.938;2024-01-15T12:24:25;97244.66;;;17.44;44.63
74466;BME280;62916;50.044;15.938;2024-01-15T12:26:56;97243.55;;;17.46;44.57
74466;BME280;62916;50.044;15.938;2024-01-15T12:29:27;97246.58;;;17.49;44.52
74466;BME280;62916;50.044;15.938;2024-01-15T12:31:58;97245.25;;;17.51;44.27
74466;BME280;62916;50.044;15.938;2024-01-15T12:34:31;97249.54;;;17.54;44.35
74466;BME280;62916;50.044;15.938;2024-01-15T12:37:03;97246.85;;;17.55;44.22
74466;BME280;62916;50.044;15.938;2024-01-15T12:39:35;97247.80;;;17.57;44.23
74466;BME280;62916;50.044;15.938;2024-01-15T12:42:07;97246.23;;;17.58;44.14
74466;BME280;62916;50.044;15.938;2024-01-15T12:44:38;97246.77;;;17.59;44.12
74466;BME280;62916;50.044;15.938;2024-01-15T12:47:09;97247.58;;;17.59;44.20
74466;BME280;62916;50.044;15.938;2024-01-15T12:49:40;97251.13;;;17.60;43.99
74466;BME280;62916;50.044;15.938;2024-01-15T12:52:12;97245.98;;;17.60;44.13
74466;BME280;62916;50.044;15.938;2024-01-15T12:54:43;97246.05;;;17.60;44.04
74466;BME280;62916;50.044;15.938;2024-01-15T12:57:14;97250.95;;;17.62;43.89
74466;BME280;62916;50.044;15.938;2024-01-15T12:59:45;97248.41;;;17.62;43.90
74466;BME280;62916;50.044;15.938;2024-01-15T13:02:16;97253.33;;;17.61;44.22
74466;BME280;62916;50.044;15.938;2024-01-15T13:04:48;97247.48;;;17.59;44.60
74466;BME280;62916;50.044;15.938;2024-01-15T13:07:19;97246.25;;;17.58;44.75
74466;BME280;62916;50.044;15.938;2024-01-15T13:09:50;97246.15;;;17.57;44.48
74466;BME280;62916;50.044;15.938;2024-01-15T13:12:23;97243.62;;;17.56;44.51
74466;BME280;62916;50.044;15.938;2024-01-15T13:14:54;97248.20;;;17.56;44.46
74466;BME280;62916;50.044;15.938;2024-01-15T13:17:26;97246.92;;;17.55;44.27